sensor_id;sensor_type;location;lat;lon;timestamp;temperature;humidity
2721;DHT22;1368;49.484;11.112;2022-07-25T00:01:54;22.60;99.90
2721;DHT22;1368;49.484;11.112;2022-07-25T00:04:21;22.60;99.90
2721;DHT22;1368;49.484;11.112;2022-07-25T00:06:47;22.40;99.90
2721;DHT22;1368;49.484;11.112;2022-07-25T00:09:13;22.30;99.90
2721;DHT22;1368;49.484;11.112;2022-07-25T00:11:38;22.20;99.90
2721;DHT22;1368;49.484;11.112;2022-07-25T00:14:04;22.20;99.90
2721;DHT22;1368;49.484;11.112;2022-07-25T00:16:30;22.20;99.90
2721;DHT22;1368;49.484;11.112;2022-07-25T00:18:55;22.70;99.90
2721;DHT22;1368;49.484;11.112;2022-07-25T00:21:21;22.50;99.90
2721;DHT22;1368;49.484;11.112;2022-07-25T00:23:47;22.60;99.90
2721;DHT22;1368;49.484;11.112;2022-07-25T00:26:12;22.60;99.90
2721;DHT22;1368;49.484;11.112;2022-07-25T00:28:38;22.50;99.90
2721;DHT22;1368;49.484;11.112;2022-07-25T00:31:04;22.60;99.90
2721;DHT22;1368;49.484;11.112;2022-07-25T00:33:30;22.60;99.90
2721;DHT22;1368;49.484;11.112;2022-07-25T00:35:56;22.50;99.90
2721;DHT22;1368;49.484;11.112;2022-07-25T00:38:21;22.60;99.90
2721;DHT22;1368;49.484;11.112;2022-07-25T00:40:47;22.70;99.90
2721;DHT22;1368;49.484;11.112;2022-07-25T00:43:12;22.70;99.90
2721;DHT22;1368;49.484;11.112;2022-07-25T00:45:38;22.70;99.90
2721;DHT22;1368;49.484;11.112;2022-07-25T00:48:04;22.70;99.90
2721;DHT22;1368;49.484;11.112;2022-07-25T00:50:30;22.70;99.90
2721;DHT22;1368;49.484;11.112;2022-07-25T00:52:55;22.70;99.90
2721;DHT22;1368;49.484;11.112;2022-07-25T00:55:22;22.70;99.90
2721;DHT22;1368;49.484;11.112;2022-07-25T00:57:48;22.70;99.90
2721;DHT22;1368;49.484;11.112;2022-07-25T01:00:14;22.70;99.90
2721;DHT22;1368;49.484;11.112;2022-07-25T01:02:41;22.70;99.90
2721;DHT22;1368;49.484;11.112;2022-07-25T01:05:07;22.70;99.90
2721;DHT22;1368;49.484;11.112;2022-07-25T01:07:34;22.70;99.90
2721;DHT22;1368;49.484;11.112;2022-07-25T01:10:00;22.70;99.90
2721;DHT22;1368;49.484;11.112;2022-07-25T01:12:26;22.70;99.90
2721;DHT22;1368;49.484;11.112;2022-07-25T01:14:51;22.70;99.90
2721;DHT22;1368;49.484;11.112;2022-07-25T01:17:17;22.60;99.90
2721;DHT22;1368;49.484;11.112;2022-07-25T01:19:42;22.60;99.90
2721;DHT22;1368;49.484;11.112;2022-07-25T01:22:08;22.60;99.90
2721;DHT22;1368;49.484;11.112;2022-07-25T01:24:34;22.60;99.90
2721;DHT22;1368;49.484;11.112;2022-07-25T01:27:01;22.60;99.90
2721;DHT22;1368;49.484;11.112;2022-07-25T01:29:27;22.70;99.90
2721;DHT22;1368;49.484;11.112;2022-07-25T01:31:53;22.60;99.90
2721;DHT22;1368;49.484;11.112;2022-07-25T01:34:18;22.60;99.90
2721;DHT22;1368;49.484;11.112;2022-07-25T01:36:44;22.50;99.90
2721;DHT22;1368;49.484;11.112;2022-07-25T01:39:10;22.60;99.90
2721;DHT22;1368;49.484;11.112;2022-07-25T01:41:35;22.60;99.90
2721;DHT22;1368;49.484;11.112;2022-07-25T01:44:01;22.60;99.90
2721;DHT22;1368;49.484;11.112;2022-07-25T01:46:27;22.50;99.90
2721;DHT22;1368;49.484;11.112;2022-07-25T01:48:53;22.30;99.90
2721;DHT22;1368;49.484;11.112;2022-07-25T01:51:18;22.30;99.90
2721;DHT22;1368;49.484;11.112;2022-07-25T01:53:44;22.30;99.90
2721;DHT22;1368;49.484;11.112;2022-07-25T01:56:09;22.20;99.90
2721;DHT22;1368;49.484;11.112;2022-07-25T01:58:35;22.20;99.90
2721;DHT22;1368;49.484;11.112;2022-07-25T02:01:00;22.30;99.90
2721;DHT22;1368;49.484;11.112;2022-07-25T02:03:26;22.30;99.90
2721;DHT22;1368;49.484;11.112;2022-07-25T02:06:03;22.20;99.90
2721;DHT22;1368;49.484;11.112;2022-07-25T02:08:30;22.20;99.90
2721;DHT22;1368;49.484;11.112;2022-07-25T02:10:56;22.20;99.90
2721;DHT22;1368;49.484;11.112;2022-07-25T02:13:22;22.20;99.90
2721;DHT22;1368;49.484;11.112;2022-07-25T02:15:48;22.20;99.90
2721;DHT22;1368;49.484;11.112;2022-07-25T02:18:14;22.20;99.90
2721;DHT22;1368;49.484;11.112;2022-07-25T02:20:39;22.50;99.90
2721;DHT22;1368;49.484;11.112;2022-07-25T02:23:05;22.10;99.90
2721;DHT22;1368;49.484;11.112;2022-07-25T02:25:31;22.00;99.90
2721;DHT22;1368;49.484;11.112;2022-07-25T02:27:57;22.00;99.90
2721;DHT22;1368;49.484;11.112;2022-07-25T02:30:23;21.90;99.90
2721;DHT22;1368;49.484;11.112;2022-07-25T02:32:49;21.90;99.90
2721;DHT22;1368;49.484;11.112;2022-07-25T02:35:14;21.80;99.90
2721;DHT22;1368;49.484;11.112;2022-07-25T02:37:40;21.80;99.90
2721;DHT22;1368;49.484;11.112;2022-07-25T02:40:06;21.80;99.90
2721;DHT22;1368;49.484;11.112;2022-07-25T02:42:32;21.70;99.90
2721;DHT22;1368;49.484;11.112;2022-07-25T02:44:57;21.70;99.90
2721;DHT22;1368;49.484;11.112;2022-07-25T02:47:23;21.70;99.90
2721;DHT22;1368;49.484;11.112;2022-07-25T02:49:48;21.60;99.90
2721;DHT22;1368;49.484;11.112;2022-07-25T02:52:14;21.60;99.90
2721;DHT22;1368;49.484;11.112;2022-07-25T02:54:40;21.60;99.90
2721;DHT22;1368;49.484;11.112;2022-07-25T02:57:05;21.80;99.90
2721;DHT22;1368;49.484;11.112;2022-07-25T02:59:31;21.50;99.90
2721;DHT22;1368;49.484;11.112;2022-07-25T03:01:56;21.50;99.90
2721;DHT22;1368;49.484;11.112;2022-07-25T03:04:22;21.50;99.90
2721;DHT22;1368;49.484;11.112;2022-07-25T03:06:48;21.40;99.90
2721;DHT22;1368;49.484;11.112;2022-07-25T03:09:13;21.30;99.90
2721;DHT22;1368;49.484;11.112;2022-07-25T03:11:39;21.30;99.90
2721;DHT22;1368;49.484;11.112;2022-07-25T03:14:06;21.40;99.90
2721;DHT22;1368;49.484;11.112;2022-07-25T03:16:32;21.40;99.90
2721;DHT22;1368;49.484;11.112;2022-07-25T03:18:58;21.50;99.90
2721;DHT22;1368;49.484;11.112;2022-07-25T03:21:23;21.40;99.90
2721;DHT22;1368;49.484;11.112;2022-07-25T03:23:49;21.50;99.90
2721;DHT22;1368;49.484;11.112;2022-07-25T03:26:14;21.50;99.90
2721;DHT22;1368;49.484;11.112;2022-07-25T03:28:40;21.50;99.90
2721;DHT22;1368;49.484;11.112;2022-07-25T03:31:05;21.40;99.90
2721;DHT22;1368;49.484;11.112;2022-07-25T03:33:31;21.30;99.90
2721;DHT22;1368;49.484;11.112;2022-07-25T03:35:57;21.30;99.90
2721;DHT22;1368;49.484;11.112;2022-07-25T03:38:22;21.40;99.90
2721;DHT22;1368;49.484;11.112;2022-07-25T03:40:49;21.40;99.90
2721;DHT22;1368;49.484;11.112;2022-07-25T03:43:14;21.40;99.90
2721;DHT22;1368;49.484;11.112;2022-07-25T03:45:40;21.30;99.90
2721;DHT22;1368;49.484;11.112;2022-07-25T03:48:06;21.10;99.90
2721;DHT22;1368;49.484;11.112;2022-07-25T03:50:32;21.60;99.90
2721;DHT22;1368;49.484;11.112;2022-07-25T03:52:57;21.20;99.90
2721;DHT22;1368;49.484;11.112;2022-07-25T03:55:23;21.30;99.90
2721;DHT22;1368;49.484;11.112;2022-07-25T03:57:49;21.30;99.90
2721;DHT22;1368;49.484;11.112;2022-07-25T04:00:16;21.20;99.90
2721;DHT22;1368;49.484;11.112;2022-07-25T04:02:41;21.10;99.90
2721;DHT22;1368;49.484;11.112;2022-07-25T04:05:07;21.20;99.90
2721;DHT22;1368;49.484;11.112;2022-07-25T04:07:34;21.10;99.90
2721;DHT22;1368;49.484;11.112;2022-07-25T04:09:59;21.20;99.90
2721;DHT22;1368;49.484;11.112;2022-07-25T04:12:25;21.40;99.90
2721;DHT22;1368;49.484;11.112;2022-07-25T04:14:51;21.50;99.90
2721;DHT22;1368;49.484;11.112;2022-07-25T04:17:16;22.10;99.90
2721;DHT22;1368;49.484;11.112;2022-07-25T04:19:42;22.30;99.90
2721;DHT22;1368;49.484;11.112;2022-07-25T04:22:08;22.60;99.90
2721;DHT22;1368;49.484;11.112;2022-07-25T04:24:33;22.90;99.90
2721;DHT22;1368;49.484;11.112;2022-07-25T04:26:59;23.10;99.90
2721;DHT22;1368;49.484;11.112;2022-07-25T04:29:24;23.30;99.90
2721;DHT22;1368;49.484;11.112;2022-07-25T04:31:50;23.50;99.90
2721;DHT22;1368;49.484;11.112;2022-07-25T04:34:15;23.80;99.90
2721;DHT22;1368;49.484;11.112;2022-07-25T04:36:41;24.50;99.90
2721;DHT22;1368;49.484;11.112;2022-07-25T04:39:06;24.20;99.90
2721;DHT22;1368;49.484;11.112;2022-07-25T04:41:32;24.60;99.90
2721;DHT22;1368;49.484;11.112;2022-07-25T04:43:57;25.10;99.90
2721;DHT22;1368;49.484;11.112;2022-07-25T04:46:23;25.50;99.50
2721;DHT22;1368;49.484;11.112;2022-07-25T04:48:49;25.40;99.10
2721;DHT22;1368;49.484;11.112;2022-07-25T04:51:16;25.30;99.10
2721;DHT22;1368;49.484;11.112;2022-07-25T04:53:41;25.10;99.20
2721;DHT22;1368;49.484;11.112;2022-07-25T04:56:07;24.70;99.60
2721;DHT22;1368;49.484;11.112;2022-07-25T04:58:33;24.30;99.90
2721;DHT22;1368;49.484;11.112;2022-07-25T05:00:58;24.20;99.90
2721;DHT22;1368;49.484;11.112;2022-07-25T05:03:24;24.60;99.90
2721;DHT22;1368;49.484;11.112;2022-07-25T05:05:50;25.00;99.80
2721;DHT22;1368;49.484;11.112;2022-07-25T05:08:16;25.70;99.00
2721;DHT22;1368;49.484;11.112;2022-07-25T05:10:42;26.60;97.70
2721;DHT22;1368;49.484;11.112;2022-07-25T05:13:08;27.30;96.40
2721;DHT22;1368;49.484;11.112;2022-07-25T05:15:34;27.90;95.20
2721;DHT22;1368;49.484;11.112;2022-07-25T05:17:59;28.50;93.70
2721;DHT22;1368;49.484;11.112;2022-07-25T05:20:25;28.90;93.20
2721;DHT22;1368;49.484;11.112;2022-07-25T05:22:51;29.30;92.00
2721;DHT22;1368;49.484;11.112;2022-07-25T05:25:17;29.60;91.30
2721;DHT22;1368;49.484;11.112;2022-07-25T05:27:43;29.70;91.00
2721;DHT22;1368;49.484;11.112;2022-07-25T05:30:10;30.20;90.00
2721;DHT22;1368;49.484;11.112;2022-07-25T05:32:38;30.40;88.40
2721;DHT22;1368;49.484;11.112;2022-07-25T05:35:05;30.70;86.80
2721;DHT22;1368;49.484;11.112;2022-07-25T05:37:35;31.00;85.40
2721;DHT22;1368;49.484;11.112;2022-07-25T05:40:00;31.40;84.30
2721;DHT22;1368;49.484;11.112;2022-07-25T05:42:27;31.40;83.30
2721;DHT22;1368;49.484;11.112;2022-07-25T05:44:53;31.30;83.30
2721;DHT22;1368;49.484;11.112;2022-07-25T05:47:18;31.80;81.60
2721;DHT22;1368;49.484;11.112;2022-07-25T05:49:44;32.00;80.80
2721;DHT22;1368;49.484;11.112;2022-07-25T05:52:10;32.20;80.00
2721;DHT22;1368;49.484;11.112;2022-07-25T05:54:35;32.60;79.00
2721;DHT22;1368;49.484;11.112;2022-07-25T05:57:01;33.20;77.10
2721;DHT22;1368;49.484;11.112;2022-07-25T05:59:27;33.50;76.40
2721;DHT22;1368;49.484;11.112;2022-07-25T06:01:53;34.30;73.70
2721;DHT22;1368;49.484;11.112;2022-07-25T06:04:18;34.60;72.60
2721;DHT22;1368;49.484;11.112;2022-07-25T06:06:44;34.90;71.50
2721;DHT22;1368;49.484;11.112;2022-07-25T06:09:16;35.10;70.70
2721;DHT22;1368;49.484;11.112;2022-07-25T06:11:42;35.30;69.30
2721;DHT22;1368;49.484;11.112;2022-07-25T06:14:07;35.90;68.30
2721;DHT22;1368;49.484;11.112;2022-07-25T06:16:33;36.20;67.00
2721;DHT22;1368;49.484;11.112;2022-07-25T06:18:59;36.10;66.50
2721;DHT22;1368;49.484;11.112;2022-07-25T06:21:24;36.20;65.90
2721;DHT22;1368;49.484;11.112;2022-07-25T06:23:50;36.10;65.30
2721;DHT22;1368;49.484;11.112;2022-07-25T06:26:15;35.70;65.50
2721;DHT22;1368;49.484;11.112;2022-07-25T06:28:41;35.90;65.40
2721;DHT22;1368;49.484;11.112;2022-07-25T06:31:06;36.00;65.50
2721;DHT22;1368;49.484;11.112;2022-07-25T06:33:32;36.20;64.30
2721;DHT22;1368;49.484;11.112;2022-07-25T06:35:58;35.70;64.30
2721;DHT22;1368;49.484;11.112;2022-07-25T06:38:24;35.90;64.50
2721;DHT22;1368;49.484;11.112;2022-07-25T06:40:49;36.40;63.80
2721;DHT22;1368;49.484;11.112;2022-07-25T06:43:15;36.60;62.50
2721;DHT22;1368;49.484;11.112;2022-07-25T06:45:40;36.80;62.20
2721;DHT22;1368;49.484;11.112;2022-07-25T06:48:12;37.20;61.70
2721;DHT22;1368;49.484;11.112;2022-07-25T06:50:37;37.80;60.10
2721;DHT22;1368;49.484;11.112;2022-07-25T06:53:03;37.20;59.50
2721;DHT22;1368;49.484;11.112;2022-07-25T06:55:28;36.60;60.60
2721;DHT22;1368;49.484;11.112;2022-07-25T06:57:54;36.30;60.20
2721;DHT22;1368;49.484;11.112;2022-07-25T07:00:20;35.70;61.00
2721;DHT22;1368;49.484;11.112;2022-07-25T07:02:56;35.30;61.60
2721;DHT22;1368;49.484;11.112;2022-07-25T07:05:25;35.40;61.30
2721;DHT22;1368;49.484;11.112;2022-07-25T07:07:51;35.60;62.20
2721;DHT22;1368;49.484;11.112;2022-07-25T07:10:18;35.60;60.90
2721;DHT22;1368;49.484;11.112;2022-07-25T07:12:44;35.10;61.30
2721;DHT22;1368;49.484;11.112;2022-07-25T07:15:11;35.20;61.70
2721;DHT22;1368;49.484;11.112;2022-07-25T07:17:36;35.60;61.10
2721;DHT22;1368;49.484;11.112;2022-07-25T07:20:03;36.00;60.90
2721;DHT22;1368;49.484;11.112;2022-07-25T07:22:29;36.40;60.70
2721;DHT22;1368;49.484;11.112;2022-07-25T07:24:55;37.50;58.80
2721;DHT22;1368;49.484;11.112;2022-07-25T07:27:20;37.50;58.70
2721;DHT22;1368;49.484;11.112;2022-07-25T07:29:48;37.60;58.10
2721;DHT22;1368;49.484;11.112;2022-07-25T07:32:14;37.90;57.50
2721;DHT22;1368;49.484;11.112;2022-07-25T07:34:40;38.20;57.40
2721;DHT22;1368;49.484;11.112;2022-07-25T07:37:05;39.10;56.50
2721;DHT22;1368;49.484;11.112;2022-07-25T07:39:31;39.40;55.30
2721;DHT22;1368;49.484;11.112;2022-07-25T07:41:56;39.40;54.40
2721;DHT22;1368;49.484;11.112;2022-07-25T07:44:22;39.50;54.70
2721;DHT22;1368;49.484;11.112;2022-07-25T07:46:47;39.20;54.70
2721;DHT22;1368;49.484;11.112;2022-07-25T07:49:13;39.30;54.80
2721;DHT22;1368;49.484;11.112;2022-07-25T07:51:39;39.40;53.50
2721;DHT22;1368;49.484;11.112;2022-07-25T07:54:04;39.40;53.50
2721;DHT22;1368;49.484;11.112;2022-07-25T07:56:49;39.40;53.30
2721;DHT22;1368;49.484;11.112;2022-07-25T07:59:14;39.60;52.60
2721;DHT22;1368;49.484;11.112;2022-07-25T08:01:40;39.70;52.70
2721;DHT22;1368;49.484;11.112;2022-07-25T08:04:05;39.20;53.20
2721;DHT22;1368;49.484;11.112;2022-07-25T08:06:32;39.60;52.80
2721;DHT22;1368;49.484;11.112;2022-07-25T08:08:57;39.80;51.60
2721;DHT22;1368;49.484;11.112;2022-07-25T08:11:23;40.40;51.30
2721;DHT22;1368;49.484;11.112;2022-07-25T08:13:50;40.70;51.30
2721;DHT22;1368;49.484;11.112;2022-07-25T08:16:16;41.10;51.10
2721;DHT22;1368;49.484;11.112;2022-07-25T08:18:42;41.70;49.40
2721;DHT22;1368;49.484;11.112;2022-07-25T08:21:07;41.60;48.90
2721;DHT22;1368;49.484;11.112;2022-07-25T08:23:34;41.00;49.20
2721;DHT22;1368;49.484;11.112;2022-07-25T08:26:00;41.50;48.60
2721;DHT22;1368;49.484;11.112;2022-07-25T08:28:27;42.00;48.00
2721;DHT22;1368;49.484;11.112;2022-07-25T08:30:52;41.20;47.20
2721;DHT22;1368;49.484;11.112;2022-07-25T08:33:18;40.90;48.10
2721;DHT22;1368;49.484;11.112;2022-07-25T08:35:49;41.10;47.80
2721;DHT22;1368;49.484;11.112;2022-07-25T08:38:20;40.70;48.10
2721;DHT22;1368;49.484;11.112;2022-07-25T08:40:46;41.20;48.60
2721;DHT22;1368;49.484;11.112;2022-07-25T08:43:13;41.40;45.80
2721;DHT22;1368;49.484;11.112;2022-07-25T08:45:50;40.30;47.00
2721;DHT22;1368;49.484;11.112;2022-07-25T08:48:19;39.80;47.60
2721;DHT22;1368;49.484;11.112;2022-07-25T08:50:46;39.70;47.40
2721;DHT22;1368;49.484;11.112;2022-07-25T08:53:12;40.30;48.40
2721;DHT22;1368;49.484;11.112;2022-07-25T08:55:39;41.30;46.50
2721;DHT22;1368;49.484;11.112;2022-07-25T08:58:04;41.10;46.30
2721;DHT22;1368;49.484;11.112;2022-07-25T09:00:30;40.70;47.10
2721;DHT22;1368;49.484;11.112;2022-07-25T09:03:03;41.30;46.80
2721;DHT22;1368;49.484;11.112;2022-07-25T09:05:31;42.10;46.20
2721;DHT22;1368;49.484;11.112;2022-07-25T09:08:06;42.20;45.20
2721;DHT22;1368;49.484;11.112;2022-07-25T09:10:32;41.20;45.40
2721;DHT22;1368;49.484;11.112;2022-07-25T09:13:00;40.30;46.20
2721;DHT22;1368;49.484;11.112;2022-07-25T09:15:43;40.00;47.30
2721;DHT22;1368;49.484;11.112;2022-07-25T09:18:10;40.60;47.30
2721;DHT22;1368;49.484;11.112;2022-07-25T09:20:54;41.00;46.60
2721;DHT22;1368;49.484;11.112;2022-07-25T09:23:31;41.20;46.20
2721;DHT22;1368;49.484;11.112;2022-07-25T09:28:29;41.90;45.10
2721;DHT22;1368;49.484;11.112;2022-07-25T09:30:59;41.00;45.80
2721;DHT22;1368;49.484;11.112;2022-07-25T09:33:26;40.90;47.60
2721;DHT22;1368;49.484;11.112;2022-07-25T09:35:54;40.80;47.20
2721;DHT22;1368;49.484;11.112;2022-07-25T09:38:21;41.00;46.60
2721;DHT22;1368;49.484;11.112;2022-07-25T09:41:13;41.50;45.80
2721;DHT22;1368;49.484;11.112;2022-07-25T09:43:41;41.30;45.90
2721;DHT22;1368;49.484;11.112;2022-07-25T09:46:08;40.60;46.90
2721;DHT22;1368;49.484;11.112;2022-07-25T09:48:35;40.50;46.50
2721;DHT22;1368;49.484;11.112;2022-07-25T09:51:01;40.30;46.80
2721;DHT22;1368;49.484;11.112;2022-07-25T09:53:27;40.10;46.50
2721;DHT22;1368;49.484;11.112;2022-07-25T09:55:53;40.00;47.60
2721;DHT22;1368;49.484;11.112;2022-07-25T09:58:24;40.90;48.20
2721;DHT22;1368;49.484;11.112;2022-07-25T10:00:55;40.50;46.70
2721;DHT22;1368;49.484;11.112;2022-07-25T10:06:27;40.30;46.70
2721;DHT22;1368;49.484;11.112;2022-07-25T10:08:55;39.40;48.10
2721;DHT22;1368;49.484;11.112;2022-07-25T10:11:23;40.30;47.90
2721;DHT22;1368;49.484;11.112;2022-07-25T10:13:50;41.00;46.40
2721;DHT22;1368;49.484;11.112;2022-07-25T10:16:21;40.90;46.40
2721;DHT22;1368;49.484;11.112;2022-07-25T10:18:53;41.00;47.70
2721;DHT22;1368;49.484;11.112;2022-07-25T10:21:20;41.50;46.30
2721;DHT22;1368;49.484;11.112;2022-07-25T10:23:57;41.80;45.60
2721;DHT22;1368;49.484;11.112;2022-07-25T10:26:23;41.60;46.10
2721;DHT22;1368;49.484;11.112;2022-07-25T10:28:51;41.40;45.40
2721;DHT22;1368;49.484;11.112;2022-07-25T10:33:58;40.20;46.20
2721;DHT22;1368;49.484;11.112;2022-07-25T10:36:25;39.10;48.10
2721;DHT22;1368;49.484;11.112;2022-07-25T10:38:59;39.80;47.30
2721;DHT22;1368;49.484;11.112;2022-07-25T10:41:26;39.50;46.70
2721;DHT22;1368;49.484;11.112;2022-07-25T10:43:56;38.60;48.30
2721;DHT22;1368;49.484;11.112;2022-07-25T10:46:25;38.20;48.80
2721;DHT22;1368;49.484;11.112;2022-07-25T10:49:05;38.30;49.10
2721;DHT22;1368;49.484;11.112;2022-07-25T10:51:33;39.20;49.20
2721;DHT22;1368;49.484;11.112;2022-07-25T10:53:59;40.00;48.10
2721;DHT22;1368;49.484;11.112;2022-07-25T10:56:27;40.10;47.00
2721;DHT22;1368;49.484;11.112;2022-07-25T10:59:00;38.80;48.40
2721;DHT22;1368;49.484;11.112;2022-07-25T11:01:33;38.10;49.60
2721;DHT22;1368;49.484;11.112;2022-07-25T11:04:03;38.40;48.90
2721;DHT22;1368;49.484;11.112;2022-07-25T11:06:34;38.70;48.60
2721;DHT22;1368;49.484;11.112;2022-07-25T11:09:02;38.00;49.10
2721;DHT22;1368;49.484;11.112;2022-07-25T11:11:35;37.80;49.80
2721;DHT22;1368;49.484;11.112;2022-07-25T11:14:01;38.40;49.90
2721;DHT22;1368;49.484;11.112;2022-07-25T11:16:27;39.40;48.90
2721;DHT22;1368;49.484;11.112;2022-07-25T11:18:53;40.10;47.80
2721;DHT22;1368;49.484;11.112;2022-07-25T11:21:19;40.50;45.90
2721;DHT22;1368;49.484;11.112;2022-07-25T11:23:50;40.50;45.30
2721;DHT22;1368;49.484;11.112;2022-07-25T11:26:16;40.50;46.00
2721;DHT22;1368;49.484;11.112;2022-07-25T11:28:49;40.70;46.00
2721;DHT22;1368;49.484;11.112;2022-07-25T11:31:17;41.30;45.00
2721;DHT22;1368;49.484;11.112;2022-07-25T11:33:46;41.60;45.30
2721;DHT22;1368;49.484;11.112;2022-07-25T11:36:12;41.40;45.50
2721;DHT22;1368;49.484;11.112;2022-07-25T11:38:39;41.70;45.40
2721;DHT22;1368;49.484;11.112;2022-07-25T11:41:05;40.70;46.10
2721;DHT22;1368;49.484;11.112;2022-07-25T11:43:31;40.20;47.50
2721;DHT22;1368;49.484;11.112;2022-07-25T11:46:00;40.10;47.60
2721;DHT22;1368;49.484;11.112;2022-07-25T11:48:35;39.80;47.60
2721;DHT22;1368;49.484;11.112;2022-07-25T11:51:15;40.00;47.70
2721;DHT22;1368;49.484;11.112;2022-07-25T11:53:50;39.50;47.80
2721;DHT22;1368;49.484;11.112;2022-07-25T11:56:17;39.60;48.80
2721;DHT22;1368;49.484;11.112;2022-07-25T11:58:58;40.10;47.80
2721;DHT22;1368;49.484;11.112;2022-07-25T12:01:24;40.00;45.00
2721;DHT22;1368;49.484;11.112;2022-07-25T12:03:50;39.80;46.50
2721;DHT22;1368;49.484;11.112;2022-07-25T12:06:16;39.40;45.60
2721;DHT22;1368;49.484;11.112;2022-07-25T12:08:42;39.00;46.10
2721;DHT22;1368;49.484;11.112;2022-07-25T12:11:18;39.00;45.70
2721;DHT22;1368;49.484;11.112;2022-07-25T12:13:44;39.10;46.60
2721;DHT22;1368;49.484;11.112;2022-07-25T12:16:09;39.00;46.50
2721;DHT22;1368;49.484;11.112;2022-07-25T12:18:36;39.00;46.10
2721;DHT22;1368;49.484;11.112;2022-07-25T12:21:02;39.10;47.80
2721;DHT22;1368;49.484;11.112;2022-07-25T12:23:28;39.40;47.10
2721;DHT22;1368;49.484;11.112;2022-07-25T12:25:53;39.50;46.70
2721;DHT22;1368;49.484;11.112;2022-07-25T12:28:19;39.60;47.10
2721;DHT22;1368;49.484;11.112;2022-07-25T12:30:45;38.80;45.50
2721;DHT22;1368;49.484;11.112;2022-07-25T12:33:11;38.60;47.00
2721;DHT22;1368;49.484;11.112;2022-07-25T12:35:39;38.90;47.60
2721;DHT22;1368;49.484;11.112;2022-07-25T12:38:05;39.20;47.50
2721;DHT22;1368;49.484;11.112;2022-07-25T12:40:31;39.10;45.70
2721;DHT22;1368;49.484;11.112;2022-07-25T12:42:57;38.60;46.10
2721;DHT22;1368;49.484;11.112;2022-07-25T12:45:23;38.50;46.90
2721;DHT22;1368;49.484;11.112;2022-07-25T12:47:49;38.80;46.80
2721;DHT22;1368;49.484;11.112;2022-07-25T12:50:16;39.00;46.80
2721;DHT22;1368;49.484;11.112;2022-07-25T12:52:43;39.30;46.40
2721;DHT22;1368;49.484;11.112;2022-07-25T12:55:11;39.40;46.40
2721;DHT22;1368;49.484;11.112;2022-07-25T12:57:37;39.30;46.80
2721;DHT22;1368;49.484;11.112;2022-07-25T13:00:05;39.20;46.40
2721;DHT22;1368;49.484;11.112;2022-07-25T13:02:32;39.30;46.10
2721;DHT22;1368;49.484;11.112;2022-07-25T13:04:58;39.00;47.40
2721;DHT22;1368;49.484;11.112;2022-07-25T13:07:23;38.70;47.60
2721;DHT22;1368;49.484;11.112;2022-07-25T13:09:49;38.90;48.20
2721;DHT22;1368;49.484;11.112;2022-07-25T13:12:14;39.50;47.60
2721;DHT22;1368;49.484;11.112;2022-07-25T13:14:40;39.60;46.90
2721;DHT22;1368;49.484;11.112;2022-07-25T13:17:06;39.70;47.30
2721;DHT22;1368;49.484;11.112;2022-07-25T13:19:31;39.80;46.10
2721;DHT22;1368;49.484;11.112;2022-07-25T13:21:57;39.70;44.50
2721;DHT22;1368;49.484;11.112;2022-07-25T13:24:22;39.90;43.60
2721;DHT22;1368;49.484;11.112;2022-07-25T13:26:49;39.90;43.70
2721;DHT22;1368;49.484;11.112;2022-07-25T13:29:14;39.90;43.00
2721;DHT22;1368;49.484;11.112;2022-07-25T13:31:40;40.00;42.50
2721;DHT22;1368;49.484;11.112;2022-07-25T13:34:07;39.90;42.10
2721;DHT22;1368;49.484;11.112;2022-07-25T13:36:33;39.80;42.00
2721;DHT22;1368;49.484;11.112;2022-07-25T13:38:59;39.70;41.50
2721;DHT22;1368;49.484;11.112;2022-07-25T13:41:25;39.50;41.60
2721;DHT22;1368;49.484;11.112;2022-07-25T13:43:51;39.20;41.70
2721;DHT22;1368;49.484;11.112;2022-07-25T13:46:16;39.20;41.90
2721;DHT22;1368;49.484;11.112;2022-07-25T13:48:42;39.30;42.20
2721;DHT22;1368;49.484;11.112;2022-07-25T13:51:08;39.40;42.50
2721;DHT22;1368;49.484;11.112;2022-07-25T13:53:33;39.40;41.50
2721;DHT22;1368;49.484;11.112;2022-07-25T13:55:59;39.50;41.20
2721;DHT22;1368;49.484;11.112;2022-07-25T13:58:26;39.30;41.20
2721;DHT22;1368;49.484;11.112;2022-07-25T14:00:52;38.90;41.10
2721;DHT22;1368;49.484;11.112;2022-07-25T14:03:18;38.70;41.80
2721;DHT22;1368;49.484;11.112;2022-07-25T14:05:43;38.70;41.90
2721;DHT22;1368;49.484;11.112;2022-07-25T14:08:09;38.40;42.00
2721;DHT22;1368;49.484;11.112;2022-07-25T14:10:34;38.40;41.80
2721;DHT22;1368;49.484;11.112;2022-07-25T14:13:00;38.30;42.70
2721;DHT22;1368;49.484;11.112;2022-07-25T14:15:26;38.40;42.70
2721;DHT22;1368;49.484;11.112;2022-07-25T14:17:52;38.50;42.90
2721;DHT22;1368;49.484;11.112;2022-07-25T14:20:17;38.40;42.50
2721;DHT22;1368;49.484;11.112;2022-07-25T14:22:43;38.30;42.70
2721;DHT22;1368;49.484;11.112;2022-07-25T14:25:09;38.10;43.30
2721;DHT22;1368;49.484;11.112;2022-07-25T14:27:36;38.20;43.00
2721;DHT22;1368;49.484;11.112;2022-07-25T14:30:02;38.40;42.70
2721;DHT22;1368;49.484;11.112;2022-07-25T14:32:28;38.50;43.00
2721;DHT22;1368;49.484;11.112;2022-07-25T14:34:53;38.50;42.90
2721;DHT22;1368;49.484;11.112;2022-07-25T14:37:20;38.40;43.20
2721;DHT22;1368;49.484;11.112;2022-07-25T14:39:46;38.40;43.10
2721;DHT22;1368;49.484;11.112;2022-07-25T14:42:12;38.40;43.60
2721;DHT22;1368;49.484;11.112;2022-07-25T14:44:38;38.40;43.20
2721;DHT22;1368;49.484;11.112;2022-07-25T14:47:05;38.30;43.30
2721;DHT22;1368;49.484;11.112;2022-07-25T14:49:31;38.20;44.20
2721;DHT22;1368;49.484;11.112;2022-07-25T14:51:56;38.30;44.20
2721;DHT22;1368;49.484;11.112;2022-07-25T14:54:23;38.30;44.20
2721;DHT22;1368;49.484;11.112;2022-07-25T14:56:55;38.20;44.60
2721;DHT22;1368;49.484;11.112;2022-07-25T14:59:22;38.20;44.20
2721;DHT22;1368;49.484;11.112;2022-07-25T15:01:47;37.90;45.10
2721;DHT22;1368;49.484;11.112;2022-07-25T15:04:13;37.70;44.70
2721;DHT22;1368;49.484;11.112;2022-07-25T15:06:39;37.90;44.90
2721;DHT22;1368;49.484;11.112;2022-07-25T15:09:04;37.90;45.30
2721;DHT22;1368;49.484;11.112;2022-07-25T15:11:30;38.00;45.50
2721;DHT22;1368;49.484;11.112;2022-07-25T15:13:56;37.80;45.80
2721;DHT22;1368;49.484;11.112;2022-07-25T15:16:22;37.10;46.00
2721;DHT22;1368;49.484;11.112;2022-07-25T15:18:48;37.10;46.80
2721;DHT22;1368;49.484;11.112;2022-07-25T15:21:14;37.10;47.30
2721;DHT22;1368;49.484;11.112;2022-07-25T15:23:40;37.10;47.10
2721;DHT22;1368;49.484;11.112;2022-07-25T15:26:06;37.00;47.20
2721;DHT22;1368;49.484;11.112;2022-07-25T15:28:34;36.90;47.30
2721;DHT22;1368;49.484;11.112;2022-07-25T15:31:00;36.60;47.60
2721;DHT22;1368;49.484;11.112;2022-07-25T15:33:26;36.40;48.10
2721;DHT22;1368;49.484;11.112;2022-07-25T15:35:51;36.40;48.50
2721;DHT22;1368;49.484;11.112;2022-07-25T15:38:17;36.40;48.80
2721;DHT22;1368;49.484;11.112;2022-07-25T15:40:44;36.50;48.90
2721;DHT22;1368;49.484;11.112;2022-07-25T15:43:10;36.40;49.20
2721;DHT22;1368;49.484;11.112;2022-07-25T15:45:40;36.50;49.10
2721;DHT22;1368;49.484;11.112;2022-07-25T15:48:07;36.60;49.00
2721;DHT22;1368;49.484;11.112;2022-07-25T15:50:38;36.90;49.00